Time;durP1;ratioP1;P1;durP2;ratioP2;P2;SDS_P1;SDS_P2;PMS_P1;PMS_P2;Temp;Humidity;BMP_temperature;BMP_pressure;BME280_temperature;BME280_humidity;BME280_pressure;Samples;Min_cycle;Max_cycle;Signal;HPM_P1;HPM_P2
2022/05/19 00:01:37;;;;;;;5.25;2.92;;;;;;;10.88;55.65;99432.72;5021745;28;20034;-59
2022/05/19 00:04:02;;;;;;;5.97;3.53;;;;;;;10.94;55.23;99423.09;5018995;28;20111;-59
2022/05/19 00:06:28;;;;;;;3.40;3.03;;;;;;;10.96;55.78;99423.88;5019334;28;20032;-59
2022/05/19 00:08:54;;;;;;;4.28;3.17;;;;;;;10.96;56.15;99426.47;4994333;28;20038;-59
2022/05/19 00:11:25;;;;;;;5.25;3.08;;;;;;;10.67;56.03;99373.72;4994307;28;20026;-59
2022/05/19 00:13:51;;;;;;;4.47;2.88;;;;;;;11.01;55.25;99425.47;4998738;28;20053;-59
2022/05/19 00:16:17;;;;;;;7.05;3.28;;;;;;;10.87;55.80;99410.31;4993840;28;20109;-58
2022/05/19 00:18:42;;;;;;;3.25;2.55;;;;;;;11.03;55.03;99420.22;5008505;28;20037;-59
2022/05/19 00:21:08;;;;;;;4.25;2.95;;;;;;;11.07;55.84;99410.66;5008013;28;20042;-59
2022/05/19 00:23:33;;;;;;;3.05;2.70;;;;;;;11.06;56.33;99402.03;5029910;28;20025;-58
2022/05/19 00:25:59;;;;;;;6.20;3.35;;;;;;;11.07;55.22;99390.75;5033500;28;20060;-58
2022/05/19 00:28:25;;;;;;;3.15;2.75;;;;;;;11.09;55.22;99388.97;5028077;28;20087;-59
2022/05/19 00:30:50;;;;;;;5.13;3.28;;;;;;;11.09;54.95;99399.34;5013769;28;20038;-59
2022/05/19 00:33:16;;;;;;;3.03;2.72;;;;;;;11.13;54.81;99413.06;4993977;28;20361;-59
2022/05/19 00:35:41;;;;;;;3.92;2.60;;;;;;;11.09;55.11;99401.06;4993433;28;20090;-59
2022/05/19 00:38:08;;;;;;;2.72;2.42;;;;;;;11.16;55.78;99424.19;4993313;28;20070;-58
2022/05/19 00:40:34;;;;;;;4.32;2.75;;;;;;;11.14;55.39;99409.59;5001088;28;20034;-59
2022/05/19 00:42:59;;;;;;;3.38;2.70;;;;;;;11.20;55.62;99415.44;4993550;28;20100;-59
2022/05/19 00:45:33;;;;;;;5.72;2.75;;;;;;;11.15;56.00;99412.13;5001322;28;20026;-60
2022/05/19 00:48:19;;;;;;;3.00;2.60;;;;;;;11.05;56.06;99402.91;5011453;28;20377;-59
2022/05/19 00:50:56;;;;;;;4.38;2.78;;;;;;;11.05;55.86;99402.91;5012363;28;20072;-60
2022/05/19 00:53:54;;;;;;;4.55;2.72;;;;;;;11.11;56.97;99402.72;5000494;28;20112;-59
2022/05/19 00:56:20;;;;;;;4.75;2.80;;;;;;;11.13;55.99;99411.34;5004788;28;20119;-58
2022/05/19 00:58:53;;;;;;;5.93;2.97;;;;;;;10.81;55.85;99350.03;5008457;28;20037;-58
2022/05/19 01:01:19;;;;;;;7.03;2.78;;;;;;;11.19;55.71;99408.56;5022776;28;20490;-58
2022/05/19 01:03:54;;;;;;;3.17;2.88;;;;;;;11.17;56.00;99405.19;5013048;28;20047;-58
2022/05/19 01:06:23;;;;;;;5.90;2.88;;;;;;;10.87;55.98;99353.31;5013093;28;20025;-57
2022/05/19 01:08:55;;;;;;;4.10;2.90;;;;;;;10.92;56.39;99384.28;5013102;28;20041;-58
2022/05/19 01:11:20;;;;;;;5.35;2.85;;;;;;;11.09;56.24;99403.66;4996971;28;20476;-58
2022/05/19 01:13:46;;;;;;;4.60;2.90;;;;;;;11.07;56.44;99389.91;5000608;28;20041;-58
2022/05/19 01:16:12;;;;;;;3.55;3.25;;;;;;;11.14;56.03;99400.06;5019046;28;20045;-58
2022/05/19 01:18:39;;;;;;;4.18;2.50;;;;;;;11.12;56.21;99396.66;5030384;28;20021;-58
2022/05/19 01:21:09;;;;;;;3.75;2.65;;;;;;;10.82;57.01;99352.59;5012662;28;20395;-58
2022/05/19 01:23:46;;;;;;;3.17;2.70;;;;;;;11.11;56.88;99410.50;4995017;28;20451;-59
2022/05/19 01:26:36;;;;;;;3.03;2.47;;;;;;;10.94;57.12;99410.97;4992948;28;20058;-58
2022/05/19 01:29:02;;;;;;;5.07;2.92;;;;;;;11.01;56.04;99407.31;4997586;28;20053;-58
2022/05/19 01:31:51;;;;;;;3.30;3.00;;;;;;;11.04;56.09;99402.06;5010418;28;20482;-58
2022/05/19 01:34:21;;;;;;;2.58;2.38;;;;;;;11.03;57.18;99423.69;5018140;28;20034;-58
2022/05/19 01:36:47;;;;;;;2.90;2.60;;;;;;;11.04;56.70;99414.16;4993184;28;20070;-58
2022/05/19 01:39:18;;;;;;;3.60;2.92;;;;;;;10.92;57.43;99414.53;4998099;28;20062;-58
2022/05/19 01:41:52;;;;;;;3.72;2.65;;;;;;;10.97;57.19;99420.41;4993851;28;20057;-58
2022/05/19 01:44:37;;;;;;;6.90;2.17;;;;;;;10.69;56.76;99364.19;4993240;28;20066;-60
2022/05/19 01:47:20;;;;;;;3.17;2.75;;;;;;;10.95;57.91;99420.47;4995998;28;20502;-59
2022/05/19 01:49:57;;;;;;;2.70;2.28;;;;;;;11.03;56.82;99430.59;5002456;28;20037;-60
2022/05/19 01:52:45;;;;;;;3.38;2.47;;;;;;;11.02;57.46;99409.03;5004705;28;20092;-59
2022/05/19 01:55:30;;;;;;;5.57;2.72;;;;;;;10.66;57.04;99348.72;5010529;28;20044;-60
2022/05/19 01:57:58;;;;;;;4.25;2.60;;;;;;;11.07;57.05;99416.66;5014562;28;20412;-60
2022/05/19 02:00:27;;;;;;;3.47;2.70;;;;;;;10.67;57.56;99356.47;5015321;28;20392;-59
2022/05/19 02:03:02;;;;;;;4.75;2.90;;;;;;;11.03;57.08;99404.69;4996717;28;20823;-60
2022/05/19 02:06:01;;;;;;;2.92;2.53;;;;;;;11.06;57.07;99404.63;5013151;28;20034;-59
2022/05/19 02:08:47;;;;;;;4.70;2.85;;;;;;;11.07;57.83;99408.06;5016192;28;20129;-59
2022/05/19 02:11:24;;;;;;;4.88;2.40;;;;;;;10.79;58.11;99339.72;5016101;28;20026;-59
2022/05/19 02:13:50;;;;;;;4.22;2.58;;;;;;;11.19;57.53;99390.41;5011739;28;20046;-59
2022/05/19 02:16:19;;;;;;;3.50;2.63;;;;;;;11.25;57.25;99389.38;5003327;28;20030;-59
2022/05/19 02:18:46;;;;;;;4.78;2.72;;;;;;;11.09;57.89;99385.53;5015844;28;20029;-60
2022/05/19 02:21:12;;;;;;;2.97;2.35;;;;;;;11.25;56.66;99406.69;5015797;28;20026;-61
2022/05/19 02:23:40;;;;;;;3.00;2.60;;;;;;;10.98;56.62;99344.38;4997819;28;20092;-60
2022/05/19 02:26:06;;;;;;;5.25;2.60;;;;;;;11.24;57.19;99405.81;5021882;28;20138;-61
2022/05/19 02:28:51;;;;;;;5.28;2.75;;;;;;;11.19;57.67;99399.94;5029261;28;20100;-62
2022/05/19 02:31:17;;;;;;;4.20;2.65;;;;;;;11.19;57.22;99411.16;5050921;28;20116;-61
2022/05/19 02:33:42;;;;;;;3.97;2.40;;;;;;;11.20;57.74;99410.25;5046575;28;20171;-61
2022/05/19 02:36:09;;;;;;;2.75;2.45;;;;;;;11.22;57.44;99400.69;5000351;28;20041;-60
2022/05/19 02:38:35;;;;;;;2.92;2.10;;;;;;;11.29;57.03;99403.13;5028310;28;20041;-60
2022/05/19 02:41:01;;;;;;;4.75;2.50;;;;;;;11.23;57.25;99404.16;5027128;28;20037;-61
2022/05/19 02:43:27;;;;;;;4.80;2.50;;;;;;;11.42;56.61;99386.31;5034236;28;20026;-61
2022/05/19 02:45:54;;;;;;;3.58;2.60;;;;;;;11.55;56.51;99376.41;5030943;28;20434;-61
2022/05/19 02:48:20;;;;;;;3.80;2.47;;;;;;;11.77;56.24;99375.75;5014696;28;20048;-61
2022/05/19 02:50:48;;;;;;;2.53;2.33;;;;;;;11.85;55.42;99368.56;5033007;28;20386;-60
2022/05/19 02:53:13;;;;;;;3.35;2.50;;;;;;;12.09;54.62;99367.78;5008516;28;20053;-60
2022/05/19 02:55:40;;;;;;;4.88;2.53;;;;;;;12.20;54.89;99359.66;5014312;28;20112;-60
2022/05/19 02:58:09;;;;;;;2.83;2.05;;;;;;;12.28;54.63;99356.81;5009143;28;20030;-61
2022/05/19 03:00:35;;;;;;;2.55;2.10;;;;;;;12.36;53.78;99359.16;4995307;28;20114;-61
2022/05/19 03:03:01;;;;;;;3.05;2.50;;;;;;;12.41;53.13;99375.41;5033892;28;20087;-61
2022/05/19 03:05:31;;;;;;;2.20;1.92;;;;;;;12.19;53.83;99329.41;5034194;28;20076;-59
2022/05/19 03:07:57;;;;;;;3.63;2.20;;;;;;;12.46;54.19;99380.47;5049231;28;20041;-60
2022/05/19 03:10:23;;;;;;;3.25;2.55;;;;;;;12.37;53.84;99389.38;5018424;28;20080;-60
2022/05/19 03:12:50;;;;;;;2.30;2.10;;;;;;;12.18;54.75;99381.38;5004554;28;20022;-60
2022/05/19 03:15:16;;;;;;;2.60;2.17;;;;;;;12.03;54.99;99386.19;5002977;28;20030;-61
2022/05/19 03:17:42;;;;;;;3.60;2.13;;;;;;;12.05;54.63;99393.91;4994770;28;20026;-61
2022/05/19 03:20:10;;;;;;;3.65;2.20;;;;;;;11.91;55.75;99397.78;4994652;28;20085;-62
2022/05/19 03:22:36;;;;;;;2.10;2.00;;;;;;;11.90;54.72;99388.28;4994070;28;20026;-61
2022/05/19 03:25:03;;;;;;;2.17;2.08;;;;;;;11.94;55.72;99377.84;4994383;28;20157;-60
2022/05/19 03:27:30;;;;;;;4.05;2.03;;;;;;;12.06;55.67;99380.03;4999217;28;20030;-59
2022/05/19 03:29:55;;;;;;;2.63;2.30;;;;;;;12.08;54.93;99380.81;4994838;28;20041;-60
2022/05/19 03:32:21;;;;;;;3.28;2.45;;;;;;;12.12;55.92;99376.41;5009522;28;20022;-60
2022/05/19 03:34:47;;;;;;;3.55;2.28;;;;;;;12.06;54.92;99375.69;5013808;28;20476;-61
2022/05/19 03:37:13;;;;;;;3.75;2.17;;;;;;;12.06;54.87;99367.06;5008416;28;20034;-60
2022/05/19 03:39:39;;;;;;;2.40;2.20;;;;;;;12.00;55.86;99356.88;5004861;28;20057;-61
2022/05/19 03:42:06;;;;;;;2.33;2.08;;;;;;;12.09;55.63;99357.41;5033660;28;20030;-60
2022/05/19 03:44:33;;;;;;;4.60;2.33;;;;;;;12.06;55.52;99364.47;5000532;28;20026;-58
2022/05/19 03:46:59;;;;;;;4.20;2.20;;;;;;;12.07;55.83;99359.22;5005256;28;20099;-59
2022/05/19 03:49:25;;;;;;;3.60;2.15;;;;;;;11.99;55.23;99369.00;4987612;28;20476;-59
2022/05/19 03:51:51;;;;;;;2.75;2.05;;;;;;;11.96;56.18;99384.69;5008620;28;20053;-60
2022/05/19 03:54:16;;;;;;;5.63;2.47;;;;;;;11.99;55.31;99378.53;5013313;28;20381;-59
2022/05/19 03:56:42;;;;;;;3.35;2.30;;;;;;;12.05;56.48;99376.56;5001778;28;20049;-59
2022/05/19 03:59:08;;;;;;;2.95;2.33;;;;;;;11.96;56.60;99378.66;4997769;28;20034;-59
2022/05/19 04:01:34;;;;;;;2.95;2.38;;;;;;;12.07;55.83;99380.00;5009608;28;20433;-60
2022/05/19 04:04:00;;;;;;;4.78;2.30;;;;;;;11.82;54.86;99350.50;5024857;28;20522;-59
2022/05/19 04:06:26;;;;;;;4.88;4.15;;;;;;;12.01;56.55;99376.72;4991875;28;20106;-59
2022/05/19 04:08:52;;;;;;;4.47;2.35;;;;;;;12.06;55.88;99400.81;4992911;28;20022;-59
2022/05/19 04:11:17;;;;;;;2.58;2.38;;;;;;;11.96;56.04;99399.41;5020759;28;20383;-59
2022/05/19 04:13:43;;;;;;;4.47;2.10;;;;;;;11.96;57.18;99402.84;5019532;28;20026;-58
2022/05/19 04:16:09;;;;;;;2.72;2.47;;;;;;;11.99;57.12;99397.56;5011511;28;20037;-58
2022/05/19 04:18:35;;;;;;;9.05;2.60;;;;;;;12.01;57.27;99398.34;5013142;28;20076;-58
2022/05/19 04:21:01;;;;;;;2.70;2.38;;;;;;;12.00;58.04;99394.06;5031496;28;20463;-60
2022/05/19 04:23:27;;;;;;;4.35;2.70;;;;;;;11.78;57.68;99405.97;5001025;28;20037;-59
2022/05/19 04:25:53;;;;;;;3.50;2.20;;;;;;;11.72;58.39;99388.88;4992839;28;20474;-59
2022/05/19 04:28:18;;;;;;;4.60;2.30;;;;;;;11.67;58.14;99403.72;5003590;28;20022;-59
2022/05/19 04:30:44;;;;;;;3.50;2.17;;;;;;;11.81;56.98;99398.09;5013586;28;20434;-60
2022/05/19 04:33:10;;;;;;;5.32;2.90;;;;;;;11.52;58.48;99356.59;5031434;28;20068;-60
2022/05/19 04:35:37;;;;;;;3.85;2.72;;;;;;;11.72;59.00;99396.66;4998274;28;20054;-60
2022/05/19 04:38:08;;;;;;;4.05;2.28;;;;;;;11.23;57.89;99358.31;5004842;28;20030;-60
2022/05/19 04:40:37;;;;;;;4.87;2.40;;;;;;;11.58;59.06;99417.81;5003631;28;20018;-59
2022/05/19 04:43:04;;;;;;;4.53;2.58;;;;;;;11.63;58.40;99415.06;4999989;28;20104;-60
2022/05/19 04:45:30;;;;;;;1.92;1.83;;;;;;;11.66;58.57;99410.66;5030439;28;20037;-59
2022/05/19 04:47:55;;;;;;;6.03;5.07;;;;;;;11.68;59.86;99411.44;5017212;28;20072;-60
2022/05/19 04:50:21;;;;;;;7.88;2.92;;;;;;;11.64;61.49;99417.63;4996570;28;20026;-59
2022/05/19 04:52:46;;;;;;;3.20;2.75;;;;;;;11.65;60.76;99418.47;5007606;28;20022;-59
2022/05/19 04:55:13;;;;;;;4.10;2.42;;;;;;;11.59;64.16;99416.91;5013623;28;20398;-60
2022/05/19 04:57:42;;;;;;;6.68;2.83;;;;;;;11.46;67.22;99416.44;4996505;28;20029;-60
2022/05/19 05:00:11;;;;;;;3.83;3.08;;;;;;;11.20;67.17;99379.16;4991978;28;20022;-60
2022/05/19 05:02:36;;;;;;;4.30;2.70;;;;;;;11.34;67.68;99419.38;5008607;28;20069;-59
2022/05/19 05:05:02;;;;;;;3.45;3.08;;;;;;;11.31;67.47;99415.13;5027343;28;20057;-60
2022/05/19 05:07:28;;;;;;;6.03;3.20;;;;;;;11.25;69.23;99415.31;5011624;28;20123;-58
2022/05/19 05:09:54;;;;;;;4.47;3.20;;;;;;;11.18;69.90;99432.78;5009411;28;20507;-58
2022/05/19 05:12:19;;;;;;;3.90;2.85;;;;;;;11.14;66.46;99425.97;4991974;28;20081;-58
2022/05/19 05:14:45;;;;;;;4.75;3.10;;;;;;;11.18;66.74;99416.38;4995051;28;20022;-58
2022/05/19 05:17:10;;;;;;;5.03;3.03;;;;;;;11.25;68.90;99419.66;5016572;28;20383;-59
2022/05/19 05:19:36;;;;;;;5.82;3.58;;;;;;;11.06;70.15;99435.72;5031255;28;20037;-59
2022/05/19 05:22:02;;;;;;;7.13;3.20;;;;;;;11.13;69.30;99426.88;5024745;28;20097;-56
2022/05/19 05:24:28;;;;;;;3.47;3.15;;;;;;;11.23;69.79;99414.53;5011562;28;20084;-58
2022/05/19 05:26:54;;;;;;;3.60;3.20;;;;;;;11.22;70.02;99415.41;4993250;28;20026;-58
2022/05/19 05:29:20;;;;;;;3.97;2.97;;;;;;;11.16;71.08;99406.06;5025564;28;20045;-58
2022/05/19 05:31:46;;;;;;;5.15;3.28;;;;;;;11.21;71.04;99418.88;5018393;28;20061;-59
2022/05/19 05:34:12;;;;;;;3.58;3.17;;;;;;;11.08;71.42;99409.75;5000393;28;20037;-58
2022/05/19 05:36:38;;;;;;;4.25;3.58;;;;;;;11.03;73.80;99415.91;5031513;28;20464;-57
2022/05/19 05:39:04;;;;;;;6.03;3.10;;;;;;;11.10;70.29;99410.56;5031597;28;20037;-58
2022/05/19 05:41:29;;;;;;;3.58;3.10;;;;;;;11.20;70.14;99412.84;5017680;28;20026;-59
2022/05/19 05:43:55;;;;;;;3.80;3.35;;;;;;;11.19;72.41;99418.94;5014951;28;20049;-58
2022/05/19 05:46:21;;;;;;;3.42;3.13;;;;;;;11.18;72.94;99422.41;5019990;28;20042;-58
2022/05/19 05:48:48;;;;;;;4.40;3.45;;;;;;;11.27;72.40;99420.44;5009203;28;20153;-58
2022/05/19 05:51:16;;;;;;;3.38;3.08;;;;;;;11.29;71.02;99429.06;5022390;28;20045;-59
2022/05/19 05:53:44;;;;;;;4.60;3.45;;;;;;;11.31;72.76;99420.31;5007898;28;20462;-59
2022/05/19 05:56:12;;;;;;;4.97;3.80;;;;;;;11.35;74.12;99421.09;5012339;28;20057;-58
2022/05/19 05:58:39;;;;;;;5.32;3.20;;;;;;;11.43;72.55;99421.72;5002052;28;20053;-58
2022/05/19 06:01:07;;;;;;;4.88;3.20;;;;;;;11.23;71.33;99384.25;5009996;28;20037;-59
2022/05/19 06:03:34;;;;;;;4.93;3.33;;;;;;;11.60;69.59;99428.13;4992513;28;20609;-58
2022/05/19 06:06:01;;;;;;;5.55;3.50;;;;;;;11.62;70.00;99426.34;5011277;28;20258;-58
2022/05/19 06:08:27;;;;;;;8.85;3.70;;;;;;;11.64;70.24;99421.97;4996583;28;20089;-59
2022/05/19 06:10:53;;;;;;;5.38;3.60;;;;;;;11.72;69.75;99427.78;5012185;28;20479;-59
2022/05/19 06:13:19;;;;;;;5.03;3.90;;;;;;;11.66;70.42;99425.38;5024001;28;20105;-58
2022/05/19 06:15:45;;;;;;;8.18;5.47;;;;;;;11.55;72.99;99423.09;5008367;28;20165;-58
2022/05/19 06:18:11;;;;;;;5.65;4.30;;;;;;;11.60;71.53;99428.13;5015204;28;20030;-58
2022/05/19 06:20:37;;;;;;;8.30;4.28;;;;;;;11.61;70.40;99427.25;5027004;28;20034;-57
2022/05/19 06:23:03;;;;;;;6.18;4.20;;;;;;;11.49;71.11;99421.53;5008882;28;20424;-58
2022/05/19 06:25:30;;;;;;;5.85;3.53;;;;;;;11.48;69.96;99421.56;5004018;28;20040;-58
2022/05/19 06:27:56;;;;;;;5.35;3.78;;;;;;;11.39;70.83;99417.50;5018952;28;20038;-58
2022/05/19 06:30:22;;;;;;;5.50;3.03;;;;;;;11.26;70.63;99401.47;4991973;28;20058;-58
2022/05/19 06:32:49;;;;;;;7.07;4.07;;;;;;;11.42;71.77;99416.56;4993927;28;20042;-58
2022/05/19 06:35:18;;;;;;;6.05;4.63;;;;;;;11.40;74.77;99424.38;5015862;28;20050;-58
2022/05/19 06:37:44;;;;;;;5.93;3.70;;;;;;;11.41;74.83;99415.72;5012602;28;20030;-58
2022/05/19 06:40:13;;;;;;;5.85;3.70;;;;;;;11.44;76.98;99412.19;5026501;28;20055;-59
2022/05/19 06:42:39;;;;;;;4.97;3.53;;;;;;;11.50;73.93;99415.47;5034920;28;20436;-58
2022/05/19 06:45:05;;;;;;;4.10;3.70;;;;;;;11.51;74.27;99419.72;4995174;28;20113;-58
2022/05/19 06:47:31;;;;;;;4.32;3.88;;;;;;;11.62;74.18;99432.38;4996237;28;20373;-57
2022/05/19 06:49:56;;;;;;;3.47;3.00;;;;;;;11.55;72.19;99418.75;5024871;28;20079;-58
2022/05/19 06:52:25;;;;;;;4.95;2.70;;;;;;;11.61;70.63;99422.91;5027494;28;20050;-58
2022/05/19 06:54:54;;;;;;;4.68;3.15;;;;;;;11.52;71.49;99421.44;5013196;28;20026;-58
2022/05/19 06:57:21;;;;;;;3.38;3.00;;;;;;;11.64;70.59;99427.97;5007245;28;20112;-58
2022/05/19 06:59:49;;;;;;;4.63;2.70;;;;;;;11.53;70.29;99417.94;4997704;28;20027;-57
2022/05/19 07:02:18;;;;;;;3.33;3.03;;;;;;;11.04;73.17;99362.34;5020216;28;20040;-58
2022/05/19 07:04:44;;;;;;;5.25;3.22;;;;;;;11.58;72.80;99421.25;5017563;28;20030;-58
2022/05/19 07:07:10;;;;;;;4.50;3.25;;;;;;;11.65;72.15;99432.28;5002014;28;20057;-58
2022/05/19 07:09:37;;;;;;;4.30;3.63;;;;;;;11.67;72.73;99422.72;5022689;28;20060;-59
2022/05/19 07:12:04;;;;;;;4.03;3.60;;;;;;;11.60;73.50;99421.22;5009703;28;20034;-59
2022/05/19 07:14:31;;;;;;;4.15;3.38;;;;;;;11.67;72.91;99424.47;5015639;28;20030;-59
2022/05/19 07:16:57;;;;;;;4.95;3.55;;;;;;;11.60;73.19;99434.19;5013827;28;20044;-59
2022/05/19 07:22:13;;;;;;;4.30;3.47;;;;;;;11.34;72.84;99378.75;5010943;28;20120;-59
2022/05/19 07:24:39;;;;;;;6.00;3.70;;;;;;;11.70;72.37;99421.75;5013811;28;20038;-58
2022/05/19 07:27:05;;;;;;;6.53;3.92;;;;;;;11.77;71.40;99433.66;5011308;28;20034;-58
2022/05/19 07:29:31;;;;;;;5.60;3.80;;;;;;;11.84;71.68;99434.31;5011726;28;20045;-58
2022/05/19 07:32:01;;;;;;;9.77;4.22;;;;;;;11.92;73.50;99424.56;5011952;28;20030;-58
2022/05/19 07:34:30;;;;;;;8.60;4.88;;;;;;;11.54;75.67;99380.75;5013087;28;20162;-58
2022/05/19 07:36:56;;;;;;;6.45;4.60;;;;;;;11.90;74.94;99418.59;5011601;28;20479;-58
2022/05/19 07:39:24;;;;;;;8.05;4.30;;;;;;;12.00;73.05;99416.56;5010787;28;20105;-59
2022/05/19 07:41:51;;;;;;;8.48;4.43;;;;;;;12.08;73.11;99406.78;5011763;28;20084;-59
2022/05/19 07:44:17;;;;;;;6.38;3.83;;;;;;;12.12;71.06;99412.75;5016227;28;20034;-57
2022/05/19 07:46:43;;;;;;;6.35;4.10;;;;;;;12.13;70.65;99404.03;5009422;28;20033;-57
2022/05/19 07:49:09;;;;;;;6.40;3.83;;;;;;;12.17;69.88;99422.06;5015599;28;20108;-58
2022/05/19 07:51:39;;;;;;;4.95;4.03;;;;;;;12.19;70.61;99422.88;5019493;28;20038;-57
2022/05/19 07:54:09;;;;;;;7.38;4.30;;;;;;;12.39;71.50;99421.38;5013130;28;20113;-57
2022/05/19 07:56:34;;;;;;;8.25;4.57;;;;;;;12.44;72.97;99409.06;5007659;28;20026;-58
2022/05/19 07:59:01;;;;;;;6.63;4.82;;;;;;;12.26;71.91;99359.44;5004073;28;20061;-57
2022/05/19 08:01:29;;;;;;;8.27;5.00;;;;;;;12.54;71.48;99394.88;5005466;28;20363;-58
2022/05/19 08:03:56;;;;;;;5.80;4.65;;;;;;;12.42;73.16;99403.09;5024485;28;20087;-58
2022/05/19 08:06:22;;;;;;;5.05;4.32;;;;;;;12.35;73.11;99406.78;5020272;28;20034;-58
2022/05/19 08:08:48;;;;;;;5.40;3.88;;;;;;;12.39;72.67;99403.19;5025374;28;20491;-57
2022/05/19 08:11:14;;;;;;;6.70;4.30;;;;;;;12.40;73.48;99402.31;5002134;28;20087;-58
2022/05/19 08:16:24;;;;;;;7.97;4.70;;;;;;;12.42;75.35;99406.50;5008620;28;20400;-58
2022/05/19 08:18:49;;;;;;;7.00;4.15;;;;;;;12.47;73.51;99403.78;4994849;28;20041;-58
2022/05/19 08:21:16;;;;;;;4.72;4.32;;;;;;;12.47;73.14;99397.72;5019922;28;20483;-58
2022/05/19 08:23:50;;;;;;;6.07;3.83;;;;;;;12.03;73.10;99359.38;4998010;28;20023;-58
2022/05/19 08:26:17;;;;;;;5.63;4.35;;;;;;;12.24;70.03;99400.22;5005896;28;20083;-58
2022/05/19 08:28:44;;;;;;;5.63;4.32;;;;;;;12.44;70.84;99401.28;5004523;28;20495;-58
2022/05/19 08:31:22;;;;;;;6.47;3.85;;;;;;;12.23;69.66;99327.56;5013033;28;20057;-57
2022/05/19 08:33:51;;;;;;;6.93;4.30;;;;;;;12.60;72.11;99399.84;5012254;28;20064;-58
2022/05/19 08:36:17;;;;;;;5.03;3.95;;;;;;;12.57;69.63;99384.38;5012436;28;20071;-58
2022/05/19 08:38:42;;;;;;;5.38;4.20;;;;;;;12.83;68.50;99393.00;4997730;28;20476;-58
2022/05/19 08:41:38;;;;;;;5.38;3.25;;;;;;;12.61;68.70;99364.31;4999774;28;20381;-58
2022/05/19 08:44:14;;;;;;;4.20;3.53;;;;;;;12.68;68.60;99344.19;4996192;28;20392;-58
2022/05/19 08:46:45;;;;;;;7.10;4.10;;;;;;;13.20;69.09;99399.47;5014329;28;20029;-58
2022/05/19 08:49:20;;;;;;;5.45;4.00;;;;;;;12.91;68.99;99340.75;5029647;28;20832;-59
2022/05/19 08:52:09;;;;;;;6.15;4.22;;;;;;;13.31;67.09;99391.28;5013083;28;20460;-58
2022/05/19 08:54:38;;;;;;;7.18;4.30;;;;;;;13.48;67.35;99379.41;5005872;28;20457;-59
2022/05/19 08:57:21;;;;;;;7.30;4.20;;;;;;;13.71;68.39;99387.19;5012361;28;20026;-59
2022/05/19 09:00:07;;;;;;;5.93;4.63;;;;;;;13.40;68.71;99356.31;5011711;28;20076;-60
2022/05/19 09:02:53;;;;;;;10.35;5.47;;;;;;;13.83;65.75;99387.63;4999347;28;20093;-60
2022/05/19 09:05:50;;;;;;;6.60;4.45;;;;;;;13.51;64.56;99335.94;5009078;28;20034;-59
2022/05/19 09:08:28;;;;;;;6.07;4.55;;;;;;;13.97;63.52;99380.09;5016175;28;20045;-58
2022/05/19 09:11:12;;;;;;;8.25;4.50;;;;;;;13.96;61.87;99378.41;5021293;28;20026;-59
2022/05/19 09:14:03;;;;;;;10.25;4.55;;;;;;;14.19;63.70;99376.59;5017534;28;20510;-59
2022/05/19 09:16:34;;;;;;;6.40;3.88;;;;;;;14.44;61.67;99385.09;5001430;28;20061;-59
2022/05/19 09:19:04;;;;;;;8.90;4.45;;;;;;;14.16;62.10;99354.13;5010272;28;20084;-59
2022/05/19 09:21:30;;;;;;;5.88;4.10;;;;;;;14.29;60.65;99386.59;5008603;28;20037;-59
2022/05/19 09:23:56;;;;;;;6.80;3.20;;;;;;;14.29;60.26;99375.31;5005139;28;20022;-59
2022/05/19 09:26:48;;;;;;;5.65;3.78;;;;;;;13.99;59.45;99378.25;5024805;28;20028;-59
2022/05/19 09:29:18;;;;;;;5.22;3.65;;;;;;;13.90;58.92;99382.09;4996160;28;20030;-59
2022/05/19 09:31:49;;;;;;;4.05;2.88;;;;;;;14.03;59.19;99371.19;5008912;28;20073;-59
2022/05/19 09:34:15;;;;;;;4.38;2.85;;;;;;;14.07;61.47;99363.19;4991968;28;20033;-59
2022/05/19 09:36:54;;;;;;;6.75;3.13;;;;;;;13.89;58.66;99315.31;4993730;28;20042;-60
2022/05/19 09:39:20;;;;;;;5.10;3.13;;;;;;;14.45;61.21;99359.88;5004642;28;20044;-59
2022/05/19 09:41:51;;;;;;;5.43;2.83;;;;;;;14.44;61.50;99314.75;5010001;28;20026;-59
2022/05/19 09:44:25;;;;;;;4.00;2.67;;;;;;;14.72;58.75;99351.81;5011785;28;20026;-60
2022/05/19 09:46:51;;;;;;;5.78;3.75;;;;;;;14.66;58.87;99363.34;5011575;28;20030;-60
2022/05/19 09:49:28;;;;;;;4.55;3.08;;;;;;;14.69;57.74;99364.97;5010200;28;20117;-60
2022/05/19 09:51:59;;;;;;;3.88;2.80;;;;;;;14.58;57.99;99300.25;5012275;28;20026;-60
2022/05/19 09:54:25;;;;;;;5.88;3.22;;;;;;;14.80;58.35;99365.34;5012184;28;20107;-60
2022/05/19 09:57:03;;;;;;;6.15;2.70;;;;;;;14.69;56.55;99300.66;5003628;28;20041;-60
2022/05/19 09:59:59;;;;;;;3.47;3.13;;;;;;;14.99;56.25;99360.16;4999397;28;20105;-60
2022/05/19 10:02:34;;;;;;;4.40;3.08;;;;;;;15.00;56.29;99378.34;4992559;28;20045;-59
2022/05/19 10:05:05;;;;;;;4.45;2.70;;;;;;;14.83;55.24;99354.78;4998968;28;20038;-60
2022/05/19 10:07:40;;;;;;;2.60;2.40;;;;;;;14.97;55.06;99357.63;4998198;28;20088;-60
2022/05/19 10:10:24;;;;;;;5.40;2.65;;;;;;;14.79;56.48;99307.16;5014094;28;20092;-60
2022/05/19 10:12:54;;;;;;;3.13;2.53;;;;;;;15.04;54.67;99358.22;5035916;28;20030;-60
2022/05/19 10:15:22;;;;;;;3.28;1.90;;;;;;;14.68;53.71;99353.72;4996519;28;20483;-61
2022/05/19 10:18:13;;;;;;;5.72;2.42;;;;;;;14.89;55.30;99328.44;5003914;28;20034;-59
2022/05/19 10:21:19;;;;;;;3.33;2.28;;;;;;;14.86;54.12;99349.44;5000965;28;20116;-60
2022/05/19 10:23:58;;;;;;;5.10;2.50;;;;;;;15.16;54.94;99346.34;5005738;28;20034;-60
2022/05/19 10:26:29;;;;;;;2.63;2.03;;;;;;;15.35;53.65;99330.72;5009803;28;20536;-59
2022/05/19 10:32:18;;;;;;;2.65;1.90;;;;;;;14.45;53.48;99285.19;5003829;28;20038;-59
2022/05/19 10:35:20;;;;;;;1.67;1.50;;;;;;;14.73;53.36;99343.09;5002347;28;20396;-59
2022/05/19 10:38:14;;;;;;;2.63;1.98;;;;;;;14.84;54.92;99330.41;5008813;28;20038;-59
2022/05/19 10:41:17;;;;;;;4.60;2.38;;;;;;;14.94;52.38;99323.88;4997639;28;20213;-59
2022/05/19 10:44:02;;;;;;;3.92;2.15;;;;;;;15.06;53.17;99317.25;4984579;28;20038;-58
2022/05/19 10:46:37;;;;;;;6.20;2.10;;;;;;;14.94;53.71;99299.56;5006702;28;20030;-58
2022/05/19 10:49:12;;;;;;;2.72;2.00;;;;;;;15.10;52.87;99321.41;4998160;28;20030;-57
2022/05/19 10:52:11;;;;;;;4.20;2.00;;;;;;;15.14;52.54;99319.50;5034976;28;20021;-57
2022/05/19 10:54:39;;;;;;;3.90;2.00;;;;;;;15.15;52.85;99327.25;5014876;28;20018;-59
2022/05/19 10:57:32;;;;;;;5.80;1.80;;;;;;;15.26;52.58;99318.09;5006192;28;20055;-59
2022/05/19 11:00:06;;;;;;;3.90;2.15;;;;;;;14.83;51.48;99328.72;5014993;28;20034;-59
2022/05/19 11:03:09;;;;;;;3.42;2.00;;;;;;;14.94;51.64;99325.66;5027796;28;20025;-59
2022/05/19 11:05:53;;;;;;;;;;;;;;;15.18;51.49;99323.66;5030631;28;20045;-59
2022/05/19 11:08:33;;;;;;;8.05;2.25;;;;;;;14.83;53.94;99259.16;5025890;28;19909;-58
2022/05/19 11:11:21;;;;;;;5.32;2.08;;;;;;;14.95;51.94;99322.09;5019967;28;20048;-59
2022/05/19 11:14:16;;;;;;;6.47;2.75;;;;;;;15.07;52.64;99305.06;5012487;28;20458;-59
2022/05/19 11:16:58;;;;;;;2.17;1.85;;;;;;;14.95;52.31;99269.94;5020830;28;20033;-58
2022/05/19 11:19:32;;;;;;;4.57;2.08;;;;;;;15.21;50.94;99300.03;5026186;28;20351;-59
2022/05/19 11:22:13;;;;;;;2.47;1.70;;;;;;;15.26;51.05;99295.44;5010451;28;20034;-58
2022/05/19 11:28:03;;;;;;;3.38;1.60;;;;;;;15.58;50.65;99294.84;5009433;28;20069;-59
2022/05/19 11:30:45;;;;;;;6.00;3.42;;;;;;;15.48;50.01;99239.63;4994262;28;20042;-57
2022/05/19 11:33:16;;;;;;;2.13;1.92;;;;;;;15.91;51.84;99275.88;5029923;28;20134;-58
2022/05/19 11:35:46;;;;;;;3.75;2.45;;;;;;;15.69;51.73;99238.56;5014361;28;20050;-58
2022/05/19 11:38:31;;;;;;;6.07;2.20;;;;;;;15.96;49.20;99282.53;5003868;28;20129;-59
2022/05/19 11:41:07;;;;;;;4.50;1.98;;;;;;;15.85;50.39;99264.78;5013906;28;20026;-58
2022/05/19 11:43:57;;;;;;;3.75;1.70;;;;;;;15.50;46.86;99269.09;5009458;28;20064;-60
2022/05/19 11:46:29;;;;;;;2.13;1.52;;;;;;;15.39;48.40;99227.88;5009397;28;20047;-59
2022/05/19 11:57:52;;;;;;;4.25;1.95;;;;;;;15.69;49.71;99267.28;5011768;28;20363;-58
2022/05/19 12:00:28;;;;;;;3.83;1.75;;;;;;;15.52;48.17;99212.47;5010371;28;20494;-59
2022/05/19 12:03:24;;;;;;;1.75;1.65;;;;;;;15.58;49.18;99201.72;5012750;28;20065;-59
2022/05/19 12:06:00;;;;;;;4.57;1.80;;;;;;;15.95;49.19;99259.94;5009369;28;20025;-59
2022/05/19 12:08:36;;;;;;;3.50;2.00;;;;;;;15.97;48.38;99254.66;5010916;28;20388;-59
2022/05/19 12:11:20;;;;;;;5.10;1.80;;;;;;;15.82;48.12;99225.78;5010060;28;20109;-58
2022/05/19 12:13:48;;;;;;;3.60;1.65;;;;;;;16.09;48.87;99251.41;5011229;28;20381;-58